Hovedside
METAR-TAF:

METAR-TAF

Lufthavner :

Kuusamo lufthavn

Kuusamo, Finland

breddegrad: 65-58N, lengdegrad: 029-11E, høyde over havet: 262 m

Gjeldene værobservasjon

Denne rapporten ble laget for 24 minutter siden, klokken 18:50 UTC
Vind 4 kt fra Sør-sørvest, skiftende mellom Sør og Vest
Temperatur 12°C
Luftfuktighet 54%
Trykk 1019 hPa
Sikt 10 km eller mer
ingen skyer under 1500 m og ingen bygeskyer

METAR: EFKS 201850Z AUTO 21004KT 180V260 CAVOK 12/03 Q1019

Tid: 22:14 (19:14 UTC)

Varsel

Denne rapporten ble laget for 4 timer og 38 minutter siden, klokken 14:36 UTC
Varsel gyldig fra 20. klokken 15 UTC til 20. klokken 19 UTC
Vind 9 kt fra Vest-sørvest
Sikt 10 km eller mer
ingen skyer under 1500 m og ingen bygeskyer

TAF: EFKS 201436Z 2015/2019 24009KT CAVOK

Værobservasjoner og værvarsel for over 4000 flyplasser (METAR- og TAF-rapporter).

Tilgjengelige stasjoner er representert av de røde og gule prikkene på kartet.

Hold musepekeren over prikken for å se navnet på stasjonen.

Klikk så for å se værobservasjoner og -varsler.

For å forandre kartet kan du klikke på den grønne knappen med svart kryss for å zoome inn, på den grønne knappen med strek for å zoome ut, eller på de grønne pilene for å se tilstøtende kart.


METAR-TAF: